This is the latest recevied weather packets stored in our database for station/object K9RJT. If no packets are shown the sender has not sent any weather packets the latest 10 day(s).
| Time | Temp. | Humidity | Pressure | Rain* | Wind** | Luminosity | Snow |
|---|---|---|---|---|---|---|---|
| 1777775615 | 19.44° C | 46% | 1009.1 hPa | 0 mm | - | 18 W/m² | - |
| 1777775311 | 20° C | 46% | 1009.2 hPa | 0 mm | - | 20 W/m² | - |
| 1777775006 | 20° C | 45% | 1009.1 hPa | 0 mm | - | 22 W/m² | - |
| 1777774703 | 20° C | 44% | 1009 hPa | 0 mm | - | 25 W/m² | - |
| 1777774399 | 20° C | 44% | 1009 hPa | 0 mm | - | 29 W/m² | - |
| 1777774097 | 20° C | 43% | 1009.1 hPa | 0 mm | - | 38 W/m² | - |
| 1777773795 | 20.56° C | 43% | 1008.9 hPa | 0 mm | - | 46 W/m² | - |
| 1777773491 | 21.11° C | 42% | 1009.1 hPa | 0 mm | - | 60 W/m² | - |
| 1777773188 | 21.11° C | 41% | 1008.7 hPa | 0 mm | - | 71 W/m² | - |
| 1777772883 | 20.56° C | 41% | 1009.1 hPa | 0 mm | - | 73 W/m² | - |
| 1777772581 | 21.11° C | 42% | 1008.9 hPa | 0 mm | - | 85 W/m² | - |
| 1777772278 | 21.11° C | 43% | 1009 hPa | 0 mm | - | 80 W/m² | - |
| 1777771976 | 20° C | 46% | 1008.8 hPa | 0 mm | - | 90 W/m² | - |
| 1777771673 | 20° C | 47% | 1008.9 hPa | 0 mm | - | 89 W/m² | - |
| 1777771370 | 20.56° C | 43% | 1008.7 hPa | 0 mm | - | 87 W/m² | - |
| 1777771067 | 20° C | 44% | 1008.7 hPa | 0 mm | - | 103 W/m² | - |
| 1777770764 | 20° C | 44% | 1008.8 hPa | 0 mm | - | 95 W/m² | - |
| 1777770460 | 20.56° C | 43% | 1008.7 hPa | 0 mm | - | 94 W/m² | - |
| 1777770157 | 21.11° C | 40% | 1008.6 hPa | 0 mm | - | 90 W/m² | - |
| 1777769854 | 21.67° C | 38% | 1008.7 hPa | 0 mm | - | 89 W/m² | - |
| 1777769551 | 21.67° C | 37% | 1008.8 hPa | 0 mm | - | 85 W/m² | - |
| 1777769247 | 21.11° C | 37% | 1008.6 hPa | 0 mm | - | 86 W/m² | - |
| 1777768946 | 21.11° C | 38% | 1008.5 hPa | 0 mm | - | 95 W/m² | - |
| 1777768643 | 20.56° C | 39% | 1008.8 hPa | 0 mm | - | 100 W/m² | - |
| 1777768340 | 21.11° C | 39% | 1008.8 hPa | 0 mm | - | 103 W/m² | - |
* Rain latest hour (hover to see other rain measurements)
** Current wind speed in m/s (hover to see current wind gust speed)